createdAt,value
2023-02-14T07:05:02.004Z,24.55
2023-02-14T07:07:38.455Z,21.70
2023-02-14T07:10:16.373Z,22.30
2023-02-14T07:12:44.345Z,28.08
2023-02-14T07:15:12.634Z,22.25
2023-02-14T07:17:55.248Z,23.30
2023-02-14T07:20:26.143Z,23.70
2023-02-14T07:25:48.770Z,27.83
2023-02-14T07:28:16.435Z,25.00
2023-02-14T07:51:40.065Z,29.15
2023-02-14T07:54:09.353Z,25.40
2023-02-14T07:56:44.047Z,23.33
2023-02-14T07:59:10.430Z,28.15
2023-02-14T08:01:37.093Z,22.98
2023-02-14T08:04:03.699Z,26.77
2023-02-14T08:06:30.151Z,21.20
2023-02-14T08:08:56.604Z,23.88
2023-02-14T08:11:41.677Z,22.73
2023-02-14T08:14:08.109Z,23.70
2023-02-14T08:16:34.806Z,20.60
2023-02-14T08:19:02.074Z,22.75
2023-02-14T08:21:28.668Z,22.70
2023-02-14T08:23:55.033Z,24.33
2023-02-14T08:26:21.494Z,24.17
2023-02-14T08:28:48.208Z,20.67
2023-02-14T08:31:34.318Z,20.58
2023-02-14T08:34:01.350Z,20.00
2023-02-14T08:36:27.814Z,20.33
2023-02-14T08:38:55.272Z,21.13
2023-02-14T08:41:21.676Z,20.02
2023-02-14T08:43:48.173Z,25.05
2023-02-14T08:46:16.828Z,27.13
2023-02-14T08:48:43.835Z,22.02
2023-02-14T08:51:12.445Z,24.30
2023-02-14T08:53:41.831Z,23.25
2023-02-14T08:56:11.699Z,21.98
2023-02-14T08:58:46.203Z,24.30
2023-02-14T09:01:16.934Z,20.40
2023-02-14T09:03:43.971Z,18.45
2023-02-14T09:06:14.330Z,16.33
2023-02-14T09:08:41.006Z,18.95
2023-02-14T09:11:10.060Z,15.27
2023-02-14T09:13:36.558Z,15.00
2023-02-14T09:16:04.090Z,13.27
2023-02-14T09:18:30.535Z,15.50
2023-02-14T09:20:57.414Z,13.65
2023-02-14T09:23:24.007Z,16.77
2023-02-14T09:28:54.750Z,14.27
2023-02-14T09:31:22.795Z,16.65
2023-02-14T09:33:49.872Z,12.77
2023-02-14T09:36:19.460Z,12.35
2023-02-14T09:38:45.978Z,13.93
2023-02-14T09:41:30.539Z,11.95
2023-02-14T09:44:07.779Z,13.50
2023-02-14T09:46:40.427Z,11.35
2023-02-14T09:49:08.961Z,11.00
2023-02-14T09:51:37.624Z,9.52
2023-02-14T09:57:07.111Z,10.50
2023-02-14T09:59:44.809Z,11.68
2023-02-14T10:02:32.568Z,11.80
2023-02-14T10:05:18.325Z,8.80
2023-02-14T10:08:03.638Z,12.07
2023-02-14T10:11:02.094Z,10.20
2023-02-14T10:13:34.738Z,14.18
2023-02-14T10:16:29.181Z,11.45
2023-02-14T10:19:22.144Z,10.88
2023-02-14T10:42:40.793Z,11.38
2023-02-14T10:45:21.072Z,10.93
2023-02-14T10:50:25.401Z,20.00
2023-02-14T10:52:52.017Z,12.00
2023-02-14T10:55:32.094Z,15.18
2023-02-14T10:58:13.535Z,13.80
2023-02-14T11:00:45.620Z,19.35
2023-02-14T11:03:14.648Z,14.05
2023-02-14T11:05:41.329Z,13.32
2023-02-14T11:08:15.622Z,16.30
2023-02-14T11:10:42.232Z,14.60
2023-02-14T11:13:27.412Z,18.67
2023-02-14T11:15:54.435Z,14.45
2023-02-14T11:18:22.892Z,18.05
2023-02-14T11:21:00.516Z,16.58
2023-02-14T11:23:26.979Z,22.30
2023-02-14T11:25:55.924Z,17.30
2023-02-14T11:28:22.700Z,14.32
2023-02-14T11:34:10.886Z,18.98
2023-02-14T11:36:54.279Z,14.63
2023-02-14T11:39:30.193Z,18.33
2023-02-14T11:41:59.077Z,16.73
2023-02-14T11:44:27.552Z,17.75
2023-02-14T11:46:58.623Z,22.45
2023-02-14T11:49:34.968Z,16.83
2023-02-14T11:52:10.378Z,16.83
2023-02-14T11:54:40.188Z,21.45
2023-02-14T11:57:37.620Z,16.08
2023-02-14T12:00:17.542Z,18.63
2023-02-14T12:03:16.658Z,18.30
2023-02-14T12:05:50.668Z,16.77
2023-02-14T12:08:23.380Z,13.90
2023-02-14T12:11:06.385Z,16.08
2023-02-14T12:13:36.166Z,19.42
2023-02-14T12:16:03.955Z,15.77
2023-02-14T12:18:33.621Z,16.90
2023-02-14T12:21:18.502Z,19.55
2023-02-14T12:23:51.428Z,18.40
2023-02-14T12:26:45.479Z,16.30
2023-02-14T12:29:23.681Z,16.85
2023-02-14T12:32:00.551Z,14.13
2023-02-14T12:34:33.940Z,15.18
2023-02-14T12:37:16.240Z,14.90
2023-02-14T12:39:42.610Z,17.67
2023-02-14T12:42:18.328Z,17.52
2023-02-14T12:44:55.074Z,17.70
2023-02-14T12:47:41.783Z,22.10
2023-02-14T12:50:23.519Z,28.02
2023-02-14T12:53:01.521Z,18.75
2023-02-14T12:55:46.108Z,15.85
2023-02-14T12:58:16.766Z,12.45
2023-02-14T13:01:02.088Z,14.65
2023-02-14T13:03:47.631Z,15.93
2023-02-14T13:06:23.372Z,14.35
2023-02-14T13:09:15.086Z,14.43
2023-02-14T13:12:13.254Z,13.23
2023-02-14T13:15:08.345Z,14.65
2023-02-14T13:17:53.623Z,13.57
2023-02-14T13:20:24.945Z,17.73
2023-02-14T13:22:53.199Z,24.02
2023-02-14T13:25:50.426Z,16.35
2023-02-14T13:28:17.348Z,11.68
2023-02-14T13:30:43.844Z,14.02
2023-02-14T13:33:27.309Z,11.68
2023-02-14T13:36:00.002Z,13.85
2023-02-14T13:38:27.284Z,10.73
2023-02-14T13:41:06.317Z,15.95
2023-02-14T13:43:48.198Z,15.00
2023-02-14T13:46:18.591Z,10.95
2023-02-14T13:51:22.025Z,11.68
2023-02-14T13:53:49.080Z,10.30
2023-02-14T13:56:18.055Z,10.90
2023-02-14T13:58:55.897Z,8.82
2023-02-14T14:01:28.429Z,12.75
2023-02-14T14:04:05.967Z,9.25
2023-02-14T14:06:51.414Z,10.23
2023-02-14T14:09:37.883Z,11.38
2023-02-14T14:12:04.405Z,9.48
2023-02-14T14:14:36.443Z,9.00
2023-02-14T14:17:05.005Z,9.18
2023-02-14T14:19:31.381Z,9.95
2023-02-14T14:22:14.267Z,7.72
2023-02-14T14:24:41.947Z,8.10
2023-02-14T14:27:18.547Z,8.80
2023-02-14T14:30:20.751Z,8.70
2023-02-14T14:32:47.207Z,9.07
2023-02-14T14:35:13.595Z,10.38
2023-02-14T14:37:47.628Z,9.23
2023-02-14T14:40:19.712Z,9.85
2023-02-14T14:42:46.507Z,8.95
2023-02-14T14:45:22.195Z,7.78
2023-02-14T14:47:49.089Z,8.68
2023-02-14T14:50:21.889Z,8.02
2023-02-14T14:52:49.813Z,10.35
2023-02-14T14:55:18.579Z,10.52
2023-02-14T14:57:49.390Z,7.80
2023-02-14T15:00:27.686Z,12.30
2023-02-14T15:03:09.783Z,12.05
2023-02-14T15:12:40.635Z,9.30
2023-02-14T15:15:10.100Z,7.18
2023-02-14T15:17:37.234Z,7.53
2023-02-14T15:20:22.043Z,12.10
2023-02-14T15:22:54.109Z,9.55
2023-02-14T15:25:24.917Z,7.43
2023-02-14T15:27:54.549Z,8.35
2023-02-14T15:30:30.923Z,8.23
2023-02-14T15:32:57.940Z,6.15
2023-02-14T15:35:26.181Z,7.45
2023-02-14T15:37:53.034Z,8.60
2023-02-14T15:40:22.663Z,7.68
2023-02-14T15:42:49.550Z,9.93
2023-02-14T15:45:19.225Z,7.75
2023-02-14T15:47:50.802Z,8.18
2023-02-14T15:50:22.624Z,7.30
2023-02-14T15:52:49.061Z,6.70
2023-02-14T15:55:43.648Z,10.05
2023-02-14T18:06:11.580Z,21.75
2023-02-14T18:11:29.600Z,25.05
2023-02-14T18:14:00.098Z,21.50
2023-02-14T18:19:03.971Z,22.35
2023-02-14T18:21:37.625Z,23.50
2023-02-14T18:24:04.646Z,22.75
2023-02-14T18:26:31.183Z,23.30
2023-02-14T18:28:58.032Z,24.00
2023-02-14T18:34:17.489Z,26.83
2023-02-14T18:36:48.576Z,31.25
2023-02-14T18:39:17.849Z,35.45
2023-02-14T18:42:10.682Z,28.92
2023-02-14T18:44:37.368Z,35.72
2023-02-14T18:47:09.167Z,32.70
2023-02-14T18:49:39.420Z,41.13
2023-02-14T18:52:07.119Z,32.70
2023-02-14T18:54:37.369Z,33.50
2023-02-14T18:57:09.963Z,36.92
2023-02-14T18:59:39.620Z,31.60
2023-02-14T19:02:06.111Z,29.77
2023-02-14T19:04:42.101Z,33.90
2023-02-14T19:09:49.801Z,27.73
2023-02-14T19:12:16.366Z,29.95
2023-02-14T19:14:45.813Z,28.67
2023-02-14T19:17:13.191Z,28.00
2023-02-14T19:19:45.872Z,24.08
2023-02-14T19:22:15.407Z,21.55
2023-02-14T19:35:12.583Z,20.80
2023-02-14T19:37:44.239Z,23.55
2023-02-14T19:40:36.758Z,21.05
2023-02-14T19:52:53.728Z,43.17
2023-02-14T19:55:34.633Z,35.88
2023-02-14T19:58:16.517Z,35.70
2023-02-14T20:48:22.782Z,23.10
2023-02-14T20:50:58.319Z,24.55
2023-02-14T20:53:28.303Z,24.67
2023-02-14T20:55:57.630Z,29.55
2023-02-14T21:01:20.395Z,23.98
2023-02-14T21:03:53.787Z,28.42
2023-02-14T21:06:29.460Z,26.98
2023-02-14T21:08:59.427Z,33.13
2023-02-14T21:11:33.615Z,29.38
2023-02-14T21:14:05.477Z,32.67
2023-02-14T21:16:45.428Z,27.40
2023-02-14T21:19:18.939Z,28.55
2023-02-14T21:21:48.023Z,27.27
2023-02-14T21:32:14.928Z,27.40
2023-02-14T21:33:31.299Z,31.15
2023-02-14T21:36:06.201Z,27.85
2023-02-14T21:38:32.852Z,30.75
2023-02-14T21:41:00.844Z,33.58
2023-02-14T21:43:29.935Z,37.03
2023-02-14T21:45:56.984Z,32.88
2023-02-14T21:48:42.228Z,34.78
2023-02-14T21:51:08.889Z,35.38
2023-02-14T21:53:35.377Z,31.80
2023-02-14T21:56:08.873Z,36.53
2023-02-14T21:58:40.185Z,24.92
2023-02-14T22:01:08.930Z,31.85
2023-02-14T22:03:38.973Z,34.03
2023-02-14T22:06:06.590Z,32.03
2023-02-14T22:08:33.691Z,34.30
2023-02-14T22:11:00.846Z,28.23
2023-02-14T22:13:29.992Z,32.25
2023-02-14T22:16:02.241Z,32.15
2023-02-14T22:18:29.239Z,30.50
2023-02-14T22:20:59.986Z,34.20
2023-02-14T22:23:29.024Z,31.40
2023-02-14T22:25:55.497Z,34.70
2023-02-14T22:28:24.388Z,33.03
2023-02-14T22:30:52.669Z,29.65
2023-02-14T22:33:19.570Z,30.17
2023-02-14T22:35:55.973Z,31.30
2023-02-14T22:38:22.691Z,40.08
2023-02-14T22:40:50.440Z,37.80
2023-02-14T22:43:17.151Z,37.85
2023-02-14T22:45:44.725Z,35.10
2023-02-14T22:48:11.176Z,34.90
2023-02-14T22:50:39.370Z,30.67
2023-02-14T22:53:07.681Z,31.02
2023-02-14T22:55:39.866Z,35.95
2023-02-14T22:58:06.346Z,28.30
2023-02-14T23:00:33.011Z,31.17
2023-02-14T23:03:08.268Z,31.10
2023-02-14T23:05:34.836Z,28.90
2023-02-14T23:08:07.020Z,28.90
2023-02-14T23:10:33.782Z,34.10
2023-02-14T23:13:21.995Z,36.42
2023-02-14T23:16:11.057Z,30.15
2023-02-14T23:18:56.158Z,31.45
2023-02-14T23:21:41.134Z,27.40
2023-02-14T23:24:07.622Z,33.85
2023-02-14T23:26:35.983Z,33.35
2023-02-14T23:29:08.018Z,31.38
2023-02-14T23:31:36.141Z,29.70
2023-02-14T23:34:19.180Z,31.90
2023-02-14T23:36:48.242Z,32.75
2023-02-14T23:39:17.730Z,35.00
2023-02-14T23:41:49.378Z,43.03
2023-02-14T23:44:19.152Z,31.08
2023-02-14T23:46:48.651Z,29.00
2023-02-14T23:49:27.168Z,35.73
2023-02-14T23:52:00.110Z,34.70
2023-02-14T23:54:31.140Z,36.33
2023-02-14T23:57:06.143Z,36.33
2023-02-14T23:59:32.865Z,29.67
